sensor_id;sensor_type;location;lat;lon;timestamp;temperature;humidity
10530;DHT22;5313;48.834;9.228;2024-02-14T00:00:12;4.30;99.90
10530;DHT22;5313;48.834;9.228;2024-02-14T00:02:44;4.20;99.90
10530;DHT22;5313;48.834;9.228;2024-02-14T00:05:09;4.30;99.90
10530;DHT22;5313;48.834;9.228;2024-02-14T00:07:36;4.30;99.90
10530;DHT22;5313;48.834;9.228;2024-02-14T00:10:02;4.40;99.90
10530;DHT22;5313;48.834;9.228;2024-02-14T00:12:28;4.40;99.90
10530;DHT22;5313;48.834;9.228;2024-02-14T00:14:53;4.50;99.90
10530;DHT22;5313;48.834;9.228;2024-02-14T00:17:19;4.50;99.90
10530;DHT22;5313;48.834;9.228;2024-02-14T00:19:45;4.50;99.90
10530;DHT22;5313;48.834;9.228;2024-02-14T00:22:10;4.50;99.90
10530;DHT22;5313;48.834;9.228;2024-02-14T00:24:36;4.50;99.90
10530;DHT22;5313;48.834;9.228;2024-02-14T00:27:02;4.50;99.90
10530;DHT22;5313;48.834;9.228;2024-02-14T00:29:28;4.50;99.90
10530;DHT22;5313;48.834;9.228;2024-02-14T00:31:54;4.50;99.90
10530;DHT22;5313;48.834;9.228;2024-02-14T00:34:19;4.50;99.90
10530;DHT22;5313;48.834;9.228;2024-02-14T00:36:46;4.60;99.90
10530;DHT22;5313;48.834;9.228;2024-02-14T00:39:12;4.70;99.90
10530;DHT22;5313;48.834;9.228;2024-02-14T00:41:37;4.70;99.90
10530;DHT22;5313;48.834;9.228;2024-02-14T00:44:03;4.80;99.90
10530;DHT22;5313;48.834;9.228;2024-02-14T00:46:29;4.80;99.90
10530;DHT22;5313;48.834;9.228;2024-02-14T00:48:55;4.80;99.90
10530;DHT22;5313;48.834;9.228;2024-02-14T00:51:21;4.80;99.90
10530;DHT22;5313;48.834;9.228;2024-02-14T00:53:47;4.80;99.90
10530;DHT22;5313;48.834;9.228;2024-02-14T00:56:12;4.80;99.90
10530;DHT22;5313;48.834;9.228;2024-02-14T00:58:38;4.80;99.90
10530;DHT22;5313;48.834;9.228;2024-02-14T01:01:04;4.80;99.90
10530;DHT22;5313;48.834;9.228;2024-02-14T01:03:31;4.80;99.90
10530;DHT22;5313;48.834;9.228;2024-02-14T01:05:56;4.90;99.90
10530;DHT22;5313;48.834;9.228;2024-02-14T01:08:22;4.90;99.90
10530;DHT22;5313;48.834;9.228;2024-02-14T01:10:48;4.90;99.90
10530;DHT22;5313;48.834;9.228;2024-02-14T01:13:15;5.00;99.90
10530;DHT22;5313;48.834;9.228;2024-02-14T01:15:41;5.00;99.90
10530;DHT22;5313;48.834;9.228;2024-02-14T01:18:07;5.00;99.90
10530;DHT22;5313;48.834;9.228;2024-02-14T01:20:32;5.10;99.90
10530;DHT22;5313;48.834;9.228;2024-02-14T01:22:58;5.00;99.90
10530;DHT22;5313;48.834;9.228;2024-02-14T01:25:25;5.10;99.90
10530;DHT22;5313;48.834;9.228;2024-02-14T01:27:51;5.10;99.90
10530;DHT22;5313;48.834;9.228;2024-02-14T01:30:18;5.10;99.90
10530;DHT22;5313;48.834;9.228;2024-02-14T01:32:43;5.10;99.90
10530;DHT22;5313;48.834;9.228;2024-02-14T01:35:09;5.20;99.90
10530;DHT22;5313;48.834;9.228;2024-02-14T01:37:35;5.20;99.90
10530;DHT22;5313;48.834;9.228;2024-02-14T01:40:00;5.30;99.90
10530;DHT22;5313;48.834;9.228;2024-02-14T01:42:26;5.30;99.90
10530;DHT22;5313;48.834;9.228;2024-02-14T01:44:53;5.30;99.90
10530;DHT22;5313;48.834;9.228;2024-02-14T01:47:20;5.40;99.90
10530;DHT22;5313;48.834;9.228;2024-02-14T01:49:46;5.50;99.90
10530;DHT22;5313;48.834;9.228;2024-02-14T01:52:12;5.50;99.90
10530;DHT22;5313;48.834;9.228;2024-02-14T01:54:39;5.60;99.90
10530;DHT22;5313;48.834;9.228;2024-02-14T01:57:05;5.70;99.90
10530;DHT22;5313;48.834;9.228;2024-02-14T01:59:33;5.70;99.90
10530;DHT22;5313;48.834;9.228;2024-02-14T02:02:00;5.70;99.90
10530;DHT22;5313;48.834;9.228;2024-02-14T02:04:25;5.80;99.90
10530;DHT22;5313;48.834;9.228;2024-02-14T02:06:51;5.80;99.90
10530;DHT22;5313;48.834;9.228;2024-02-14T02:09:21;5.70;99.90
10530;DHT22;5313;48.834;9.228;2024-02-14T02:11:52;5.80;99.90
10530;DHT22;5313;48.834;9.228;2024-02-14T02:14:19;5.80;99.90
10530;DHT22;5313;48.834;9.228;2024-02-14T02:16:45;5.80;99.90
10530;DHT22;5313;48.834;9.228;2024-02-14T02:19:11;5.80;99.90
10530;DHT22;5313;48.834;9.228;2024-02-14T02:21:37;5.90;99.90
10530;DHT22;5313;48.834;9.228;2024-02-14T02:24:03;5.90;99.90
10530;DHT22;5313;48.834;9.228;2024-02-14T02:26:28;6.00;99.90
10530;DHT22;5313;48.834;9.228;2024-02-14T02:28:54;6.00;99.90
10530;DHT22;5313;48.834;9.228;2024-02-14T02:31:20;6.00;99.90
10530;DHT22;5313;48.834;9.228;2024-02-14T02:33:46;6.00;99.90
10530;DHT22;5313;48.834;9.228;2024-02-14T02:36:11;6.00;99.90
10530;DHT22;5313;48.834;9.228;2024-02-14T02:38:37;6.00;99.90
10530;DHT22;5313;48.834;9.228;2024-02-14T02:41:03;6.00;99.90
10530;DHT22;5313;48.834;9.228;2024-02-14T02:43:32;6.00;99.90
10530;DHT22;5313;48.834;9.228;2024-02-14T02:45:58;6.00;99.90
10530;DHT22;5313;48.834;9.228;2024-02-14T02:48:23;6.00;99.90
10530;DHT22;5313;48.834;9.228;2024-02-14T02:50:49;6.00;99.90
10530;DHT22;5313;48.834;9.228;2024-02-14T02:53:16;6.00;99.90
10530;DHT22;5313;48.834;9.228;2024-02-14T02:55:41;5.90;99.90
10530;DHT22;5313;48.834;9.228;2024-02-14T02:58:07;6.00;99.90
10530;DHT22;5313;48.834;9.228;2024-02-14T03:00:33;6.00;99.90
10530;DHT22;5313;48.834;9.228;2024-02-14T03:02:59;6.00;99.90
10530;DHT22;5313;48.834;9.228;2024-02-14T03:05:25;6.00;99.90
10530;DHT22;5313;48.834;9.228;2024-02-14T03:07:51;6.00;99.90
10530;DHT22;5313;48.834;9.228;2024-02-14T03:10:18;6.00;99.90
10530;DHT22;5313;48.834;9.228;2024-02-14T03:12:50;6.00;99.90
10530;DHT22;5313;48.834;9.228;2024-02-14T03:15:16;6.00;99.90
10530;DHT22;5313;48.834;9.228;2024-02-14T03:17:41;6.00;99.90
10530;DHT22;5313;48.834;9.228;2024-02-14T03:20:08;5.90;99.90
10530;DHT22;5313;48.834;9.228;2024-02-14T03:22:40;5.90;99.90
10530;DHT22;5313;48.834;9.228;2024-02-14T03:25:13;5.80;99.90
10530;DHT22;5313;48.834;9.228;2024-02-14T03:27:41;5.70;99.90
10530;DHT22;5313;48.834;9.228;2024-02-14T03:30:07;5.60;99.90
10530;DHT22;5313;48.834;9.228;2024-02-14T03:32:33;5.60;99.90
10530;DHT22;5313;48.834;9.228;2024-02-14T03:34:58;5.50;99.90
10530;DHT22;5313;48.834;9.228;2024-02-14T03:37:26;5.50;99.90
10530;DHT22;5313;48.834;9.228;2024-02-14T03:39:52;5.50;99.90
10530;DHT22;5313;48.834;9.228;2024-02-14T03:42:18;5.40;99.90
10530;DHT22;5313;48.834;9.228;2024-02-14T03:44:45;5.40;99.90
10530;DHT22;5313;48.834;9.228;2024-02-14T03:47:11;5.50;99.90
10530;DHT22;5313;48.834;9.228;2024-02-14T03:49:37;5.50;99.90
10530;DHT22;5313;48.834;9.228;2024-02-14T03:52:04;5.50;99.90
10530;DHT22;5313;48.834;9.228;2024-02-14T03:54:38;5.50;99.90
10530;DHT22;5313;48.834;9.228;2024-02-14T03:57:04;5.50;99.90
10530;DHT22;5313;48.834;9.228;2024-02-14T03:59:36;6.10;99.90
10530;DHT22;5313;48.834;9.228;2024-02-14T04:02:01;5.50;99.90
10530;DHT22;5313;48.834;9.228;2024-02-14T04:04:27;5.60;99.90
10530;DHT22;5313;48.834;9.228;2024-02-14T04:06:52;5.60;99.90
10530;DHT22;5313;48.834;9.228;2024-02-14T04:09:18;5.60;99.90
10530;DHT22;5313;48.834;9.228;2024-02-14T04:11:43;5.60;99.90
10530;DHT22;5313;48.834;9.228;2024-02-14T04:14:09;5.70;99.90
10530;DHT22;5313;48.834;9.228;2024-02-14T04:16:34;5.70;99.90
10530;DHT22;5313;48.834;9.228;2024-02-14T04:19:02;5.70;99.90
10530;DHT22;5313;48.834;9.228;2024-02-14T04:21:28;5.70;99.90
10530;DHT22;5313;48.834;9.228;2024-02-14T04:23:53;5.70;99.90
10530;DHT22;5313;48.834;9.228;2024-02-14T04:26:20;5.70;99.90
10530;DHT22;5313;48.834;9.228;2024-02-14T04:28:45;5.70;99.90
10530;DHT22;5313;48.834;9.228;2024-02-14T04:31:11;5.70;99.90
10530;DHT22;5313;48.834;9.228;2024-02-14T04:33:36;5.70;99.90
10530;DHT22;5313;48.834;9.228;2024-02-14T04:36:02;5.70;99.90
10530;DHT22;5313;48.834;9.228;2024-02-14T04:38:29;5.70;99.90
10530;DHT22;5313;48.834;9.228;2024-02-14T04:40:55;5.70;99.90
10530;DHT22;5313;48.834;9.228;2024-02-14T04:43:22;5.70;99.90
10530;DHT22;5313;48.834;9.228;2024-02-14T04:45:47;5.70;99.90
10530;DHT22;5313;48.834;9.228;2024-02-14T04:48:13;5.70;99.90
10530;DHT22;5313;48.834;9.228;2024-02-14T04:50:39;5.70;99.90
10530;DHT22;5313;48.834;9.228;2024-02-14T04:53:04;5.70;99.90
10530;DHT22;5313;48.834;9.228;2024-02-14T04:55:30;5.70;99.90
10530;DHT22;5313;48.834;9.228;2024-02-14T04:57:55;5.80;99.90
10530;DHT22;5313;48.834;9.228;2024-02-14T05:00:21;5.70;99.90
10530;DHT22;5313;48.834;9.228;2024-02-14T05:02:47;5.70;99.90
10530;DHT22;5313;48.834;9.228;2024-02-14T05:05:12;5.80;99.90
10530;DHT22;5313;48.834;9.228;2024-02-14T05:07:37;5.80;99.90
10530;DHT22;5313;48.834;9.228;2024-02-14T05:10:03;5.80;99.90
10530;DHT22;5313;48.834;9.228;2024-02-14T05:12:29;5.90;99.90
10530;DHT22;5313;48.834;9.228;2024-02-14T05:14:54;5.90;99.90
10530;DHT22;5313;48.834;9.228;2024-02-14T05:17:20;6.00;99.90
10530;DHT22;5313;48.834;9.228;2024-02-14T05:19:45;6.00;99.90
10530;DHT22;5313;48.834;9.228;2024-02-14T05:22:11;6.10;99.90
10530;DHT22;5313;48.834;9.228;2024-02-14T05:24:36;6.10;99.90
10530;DHT22;5313;48.834;9.228;2024-02-14T05:27:04;6.10;99.90
10530;DHT22;5313;48.834;9.228;2024-02-14T05:29:30;6.10;99.90
10530;DHT22;5313;48.834;9.228;2024-02-14T05:31:56;6.10;99.90
10530;DHT22;5313;48.834;9.228;2024-02-14T05:34:22;6.20;99.90
10530;DHT22;5313;48.834;9.228;2024-02-14T05:36:48;6.20;99.90
10530;DHT22;5313;48.834;9.228;2024-02-14T05:39:14;6.20;99.90
10530;DHT22;5313;48.834;9.228;2024-02-14T05:41:39;6.20;99.90
10530;DHT22;5313;48.834;9.228;2024-02-14T05:44:05;6.20;99.90
10530;DHT22;5313;48.834;9.228;2024-02-14T05:46:31;6.20;99.90
10530;DHT22;5313;48.834;9.228;2024-02-14T05:48:56;6.30;99.90
10530;DHT22;5313;48.834;9.228;2024-02-14T05:51:23;6.30;99.90
10530;DHT22;5313;48.834;9.228;2024-02-14T05:53:48;6.30;99.90
10530;DHT22;5313;48.834;9.228;2024-02-14T05:56:14;6.40;99.90
10530;DHT22;5313;48.834;9.228;2024-02-14T05:58:39;6.40;99.90
10530;DHT22;5313;48.834;9.228;2024-02-14T06:01:05;6.40;99.90
10530;DHT22;5313;48.834;9.228;2024-02-14T06:03:31;6.40;99.90
10530;DHT22;5313;48.834;9.228;2024-02-14T06:05:57;6.40;99.90
10530;DHT22;5313;48.834;9.228;2024-02-14T06:08:22;6.40;99.90
10530;DHT22;5313;48.834;9.228;2024-02-14T06:10:49;6.40;99.90
10530;DHT22;5313;48.834;9.228;2024-02-14T06:13:15;6.40;99.90
10530;DHT22;5313;48.834;9.228;2024-02-14T06:15:40;6.40;99.90
10530;DHT22;5313;48.834;9.228;2024-02-14T06:18:06;6.40;99.90
10530;DHT22;5313;48.834;9.228;2024-02-14T06:20:31;6.40;99.90
10530;DHT22;5313;48.834;9.228;2024-02-14T06:22:57;6.30;99.90
10530;DHT22;5313;48.834;9.228;2024-02-14T06:25:23;6.30;99.90
10530;DHT22;5313;48.834;9.228;2024-02-14T06:27:48;6.30;99.90
10530;DHT22;5313;48.834;9.228;2024-02-14T06:30:14;6.30;99.90
10530;DHT22;5313;48.834;9.228;2024-02-14T06:32:39;6.20;99.90
10530;DHT22;5313;48.834;9.228;2024-02-14T06:35:05;6.10;99.90
10530;DHT22;5313;48.834;9.228;2024-02-14T06:37:31;6.10;99.90
10530;DHT22;5313;48.834;9.228;2024-02-14T06:39:56;6.10;99.90
10530;DHT22;5313;48.834;9.228;2024-02-14T06:42:22;6.20;99.90
10530;DHT22;5313;48.834;9.228;2024-02-14T06:44:47;6.20;99.90
10530;DHT22;5313;48.834;9.228;2024-02-14T06:47:15;6.30;99.90
10530;DHT22;5313;48.834;9.228;2024-02-14T06:49:40;6.40;99.90
10530;DHT22;5313;48.834;9.228;2024-02-14T06:52:06;6.40;99.90
10530;DHT22;5313;48.834;9.228;2024-02-14T06:54:31;6.40;99.90
10530;DHT22;5313;48.834;9.228;2024-02-14T06:56:56;6.40;99.90
10530;DHT22;5313;48.834;9.228;2024-02-14T06:59:22;6.40;99.90
10530;DHT22;5313;48.834;9.228;2024-02-14T07:01:48;6.40;99.90
10530;DHT22;5313;48.834;9.228;2024-02-14T07:04:14;6.40;99.90
10530;DHT22;5313;48.834;9.228;2024-02-14T07:06:39;6.40;99.90
10530;DHT22;5313;48.834;9.228;2024-02-14T07:09:05;6.50;99.90
10530;DHT22;5313;48.834;9.228;2024-02-14T07:11:31;6.50;99.90
10530;DHT22;5313;48.834;9.228;2024-02-14T07:13:56;6.50;99.90
10530;DHT22;5313;48.834;9.228;2024-02-14T07:16:22;6.50;99.90
10530;DHT22;5313;48.834;9.228;2024-02-14T07:18:49;6.60;99.90
10530;DHT22;5313;48.834;9.228;2024-02-14T07:21:14;6.60;99.90
10530;DHT22;5313;48.834;9.228;2024-02-14T07:23:40;6.60;99.90
10530;DHT22;5313;48.834;9.228;2024-02-14T07:26:05;6.70;99.90
10530;DHT22;5313;48.834;9.228;2024-02-14T07:28:31;6.70;99.90
10530;DHT22;5313;48.834;9.228;2024-02-14T07:30:57;6.70;99.90
10530;DHT22;5313;48.834;9.228;2024-02-14T07:33:23;6.70;99.90
10530;DHT22;5313;48.834;9.228;2024-02-14T07:35:49;6.70;99.90
10530;DHT22;5313;48.834;9.228;2024-02-14T07:38:15;6.70;99.90
10530;DHT22;5313;48.834;9.228;2024-02-14T07:40:42;6.80;99.90
10530;DHT22;5313;48.834;9.228;2024-02-14T07:43:07;6.80;99.90
10530;DHT22;5313;48.834;9.228;2024-02-14T07:45:33;6.80;99.90
10530;DHT22;5313;48.834;9.228;2024-02-14T07:47:58;8.40;99.90
10530;DHT22;5313;48.834;9.228;2024-02-14T07:50:24;6.90;99.90
10530;DHT22;5313;48.834;9.228;2024-02-14T07:52:49;7.00;99.90
10530;DHT22;5313;48.834;9.228;2024-02-14T07:55:15;7.00;99.90
10530;DHT22;5313;48.834;9.228;2024-02-14T07:57:41;7.00;99.90
10530;DHT22;5313;48.834;9.228;2024-02-14T08:00:08;7.10;99.90
10530;DHT22;5313;48.834;9.228;2024-02-14T08:02:34;7.10;99.90
10530;DHT22;5313;48.834;9.228;2024-02-14T08:05:00;7.10;99.90
10530;DHT22;5313;48.834;9.228;2024-02-14T08:07:26;7.20;99.90
10530;DHT22;5313;48.834;9.228;2024-02-14T08:09:51;7.30;99.90
10530;DHT22;5313;48.834;9.228;2024-02-14T08:12:17;7.30;99.90
10530;DHT22;5313;48.834;9.228;2024-02-14T08:14:43;7.40;99.90
10530;DHT22;5313;48.834;9.228;2024-02-14T08:17:08;7.50;99.90
10530;DHT22;5313;48.834;9.228;2024-02-14T08:19:34;7.60;99.90
10530;DHT22;5313;48.834;9.228;2024-02-14T08:22:00;7.60;99.90
10530;DHT22;5313;48.834;9.228;2024-02-14T08:24:27;7.70;99.90
10530;DHT22;5313;48.834;9.228;2024-02-14T08:26:53;7.60;99.90
10530;DHT22;5313;48.834;9.228;2024-02-14T08:29:18;7.60;99.90
10530;DHT22;5313;48.834;9.228;2024-02-14T08:31:44;7.60;99.90
10530;DHT22;5313;48.834;9.228;2024-02-14T08:34:09;7.60;99.90
10530;DHT22;5313;48.834;9.228;2024-02-14T08:36:35;7.70;99.90
10530;DHT22;5313;48.834;9.228;2024-02-14T08:39:07;7.80;99.90
10530;DHT22;5313;48.834;9.228;2024-02-14T08:41:33;7.80;99.90
10530;DHT22;5313;48.834;9.228;2024-02-14T08:43:58;7.90;99.90
10530;DHT22;5313;48.834;9.228;2024-02-14T08:46:24;8.00;99.90
10530;DHT22;5313;48.834;9.228;2024-02-14T08:48:51;8.10;99.90
10530;DHT22;5313;48.834;9.228;2024-02-14T08:51:17;8.20;99.90
10530;DHT22;5313;48.834;9.228;2024-02-14T08:53:45;8.20;99.90
10530;DHT22;5313;48.834;9.228;2024-02-14T08:56:11;8.40;99.90
10530;DHT22;5313;48.834;9.228;2024-02-14T08:58:37;8.50;99.90
10530;DHT22;5313;48.834;9.228;2024-02-14T09:01:02;8.60;99.90
10530;DHT22;5313;48.834;9.228;2024-02-14T09:03:28;8.70;99.90
10530;DHT22;5313;48.834;9.228;2024-02-14T09:05:55;8.70;99.90
10530;DHT22;5313;48.834;9.228;2024-02-14T09:08:22;8.70;99.90
10530;DHT22;5313;48.834;9.228;2024-02-14T09:10:50;8.80;99.90
10530;DHT22;5313;48.834;9.228;2024-02-14T09:13:15;8.80;99.90
10530;DHT22;5313;48.834;9.228;2024-02-14T09:15:41;8.90;99.90
10530;DHT22;5313;48.834;9.228;2024-02-14T09:18:06;9.00;99.90
10530;DHT22;5313;48.834;9.228;2024-02-14T09:20:32;8.90;99.90
10530;DHT22;5313;48.834;9.228;2024-02-14T09:22:57;8.90;99.90
10530;DHT22;5313;48.834;9.228;2024-02-14T09:25:24;9.00;99.90
10530;DHT22;5313;48.834;9.228;2024-02-14T09:27:50;9.00;99.90
10530;DHT22;5313;48.834;9.228;2024-02-14T09:30:16;9.10;99.90
10530;DHT22;5313;48.834;9.228;2024-02-14T09:32:43;9.10;99.90
10530;DHT22;5313;48.834;9.228;2024-02-14T09:35:09;9.10;99.90
10530;DHT22;5313;48.834;9.228;2024-02-14T09:37:35;9.20;99.90
10530;DHT22;5313;48.834;9.228;2024-02-14T09:40:04;9.20;99.90
10530;DHT22;5313;48.834;9.228;2024-02-14T09:42:53;9.30;99.90
10530;DHT22;5313;48.834;9.228;2024-02-14T09:45:18;9.50;99.90
10530;DHT22;5313;48.834;9.228;2024-02-14T09:47:45;9.70;99.90
10530;DHT22;5313;48.834;9.228;2024-02-14T09:50:12;9.60;99.90
10530;DHT22;5313;48.834;9.228;2024-02-14T09:52:38;9.70;99.90
10530;DHT22;5313;48.834;9.228;2024-02-14T09:55:05;9.70;99.90
10530;DHT22;5313;48.834;9.228;2024-02-14T09:57:32;9.70;99.90
10530;DHT22;5313;48.834;9.228;2024-02-14T10:00:00;9.70;99.90
10530;DHT22;5313;48.834;9.228;2024-02-14T10:02:26;9.80;99.90
10530;DHT22;5313;48.834;9.228;2024-02-14T10:04:52;9.90;99.90
10530;DHT22;5313;48.834;9.228;2024-02-14T10:07:18;10.00;99.90
10530;DHT22;5313;48.834;9.228;2024-02-14T10:09:44;10.20;99.90
10530;DHT22;5313;48.834;9.228;2024-02-14T10:12:10;10.40;99.90
10530;DHT22;5313;48.834;9.228;2024-02-14T10:14:36;10.60;99.90
10530;DHT22;5313;48.834;9.228;2024-02-14T10:17:06;10.70;99.90
10530;DHT22;5313;48.834;9.228;2024-02-14T10:19:33;10.90;99.90
10530;DHT22;5313;48.834;9.228;2024-02-14T10:21:59;11.30;99.90
10530;DHT22;5313;48.834;9.228;2024-02-14T10:24:28;11.80;99.90
10530;DHT22;5313;48.834;9.228;2024-02-14T10:26:53;12.00;99.90
10530;DHT22;5313;48.834;9.228;2024-02-14T10:29:20;12.30;99.90
10530;DHT22;5313;48.834;9.228;2024-02-14T10:31:46;12.40;99.90
10530;DHT22;5313;48.834;9.228;2024-02-14T10:34:12;12.70;99.90
10530;DHT22;5313;48.834;9.228;2024-02-14T10:36:38;13.00;99.90
10530;DHT22;5313;48.834;9.228;2024-02-14T10:39:05;13.20;99.90
10530;DHT22;5313;48.834;9.228;2024-02-14T10:41:33;13.40;99.90
10530;DHT22;5313;48.834;9.228;2024-02-14T10:44:04;13.60;99.90
10530;DHT22;5313;48.834;9.228;2024-02-14T10:46:32;13.80;99.90
10530;DHT22;5313;48.834;9.228;2024-02-14T10:49:03;13.90;99.90
10530;DHT22;5313;48.834;9.228;2024-02-14T10:51:32;14.10;99.90
10530;DHT22;5313;48.834;9.228;2024-02-14T10:54:00;14.50;99.90
10530;DHT22;5313;48.834;9.228;2024-02-14T10:56:28;14.50;99.90
10530;DHT22;5313;48.834;9.228;2024-02-14T10:58:56;14.90;99.90
10530;DHT22;5313;48.834;9.228;2024-02-14T11:01:28;15.00;99.90
10530;DHT22;5313;48.834;9.228;2024-02-14T11:03:58;14.70;99.90
10530;DHT22;5313;48.834;9.228;2024-02-14T11:06:24;14.40;99.90
10530;DHT22;5313;48.834;9.228;2024-02-14T11:09:00;14.10;99.90
10530;DHT22;5313;48.834;9.228;2024-02-14T11:11:28;13.80;99.90
10530;DHT22;5313;48.834;9.228;2024-02-14T11:13:54;13.70;99.90
10530;DHT22;5313;48.834;9.228;2024-02-14T11:16:27;13.40;99.90
10530;DHT22;5313;48.834;9.228;2024-02-14T11:19:05;13.10;99.90
10530;DHT22;5313;48.834;9.228;2024-02-14T11:21:56;12.90;99.90
10530;DHT22;5313;48.834;9.228;2024-02-14T11:24:28;13.00;99.90
10530;DHT22;5313;48.834;9.228;2024-02-14T11:26:55;13.00;99.90
10530;DHT22;5313;48.834;9.228;2024-02-14T11:29:21;12.90;99.90
10530;DHT22;5313;48.834;9.228;2024-02-14T11:32:00;12.80;99.90
10530;DHT22;5313;48.834;9.228;2024-02-14T11:34:27;12.80;99.90
10530;DHT22;5313;48.834;9.228;2024-02-14T11:36:53;12.80;99.90
10530;DHT22;5313;48.834;9.228;2024-02-14T11:39:20;12.80;99.90
10530;DHT22;5313;48.834;9.228;2024-02-14T11:41:46;12.80;99.90
10530;DHT22;5313;48.834;9.228;2024-02-14T11:44:11;12.80;99.90
10530;DHT22;5313;48.834;9.228;2024-02-14T11:46:40;12.80;99.90
10530;DHT22;5313;48.834;9.228;2024-02-14T11:49:07;12.80;99.90
10530;DHT22;5313;48.834;9.228;2024-02-14T11:51:34;12.90;99.90
10530;DHT22;5313;48.834;9.228;2024-02-14T11:54:05;12.90;99.90
10530;DHT22;5313;48.834;9.228;2024-02-14T11:56:36;12.90;99.90
10530;DHT22;5313;48.834;9.228;2024-02-14T11:59:06;12.90;99.90
10530;DHT22;5313;48.834;9.228;2024-02-14T12:01:33;13.00;99.90
10530;DHT22;5313;48.834;9.228;2024-02-14T12:04:09;13.10;99.90
10530;DHT22;5313;48.834;9.228;2024-02-14T12:06:35;13.10;99.90
10530;DHT22;5313;48.834;9.228;2024-02-14T12:09:02;13.00;99.90
10530;DHT22;5313;48.834;9.228;2024-02-14T12:11:31;13.10;99.90
10530;DHT22;5313;48.834;9.228;2024-02-14T12:14:01;13.00;99.90
10530;DHT22;5313;48.834;9.228;2024-02-14T12:16:28;13.10;99.90
10530;DHT22;5313;48.834;9.228;2024-02-14T12:19:04;13.10;99.90
10530;DHT22;5313;48.834;9.228;2024-02-14T12:21:37;13.20;99.90
10530;DHT22;5313;48.834;9.228;2024-02-14T12:24:13;13.20;99.90
10530;DHT22;5313;48.834;9.228;2024-02-14T12:26:42;13.20;99.90
10530;DHT22;5313;48.834;9.228;2024-02-14T12:29:12;13.20;99.90
10530;DHT22;5313;48.834;9.228;2024-02-14T12:31:41;13.00;99.90
10530;DHT22;5313;48.834;9.228;2024-02-14T12:34:11;13.20;99.90
10530;DHT22;5313;48.834;9.228;2024-02-14T12:36:36;13.20;99.90
10530;DHT22;5313;48.834;9.228;2024-02-14T12:39:03;13.30;99.90
10530;DHT22;5313;48.834;9.228;2024-02-14T12:41:30;13.10;99.90
10530;DHT22;5313;48.834;9.228;2024-02-14T12:43:56;13.20;99.90
10530;DHT22;5313;48.834;9.228;2024-02-14T12:46:22;13.40;99.90
10530;DHT22;5313;48.834;9.228;2024-02-14T12:48:48;13.70;99.90
10530;DHT22;5313;48.834;9.228;2024-02-14T12:51:14;14.10;99.90
10530;DHT22;5313;48.834;9.228;2024-02-14T12:53:40;13.90;99.90
10530;DHT22;5313;48.834;9.228;2024-02-14T12:56:06;13.80;99.90
10530;DHT22;5313;48.834;9.228;2024-02-14T12:58:32;13.80;99.90
10530;DHT22;5313;48.834;9.228;2024-02-14T13:00:58;14.00;99.90
10530;DHT22;5313;48.834;9.228;2024-02-14T13:03:27;14.60;99.90
10530;DHT22;5313;48.834;9.228;2024-02-14T13:05:53;14.70;99.90
10530;DHT22;5313;48.834;9.228;2024-02-14T13:08:20;14.90;99.90
10530;DHT22;5313;48.834;9.228;2024-02-14T13:10:45;15.00;99.90
10530;DHT22;5313;48.834;9.228;2024-02-14T13:13:11;14.90;99.90
10530;DHT22;5313;48.834;9.228;2024-02-14T13:15:37;15.00;99.90
10530;DHT22;5313;48.834;9.228;2024-02-14T13:18:02;14.80;99.90
10530;DHT22;5313;48.834;9.228;2024-02-14T13:20:28;14.70;99.90
10530;DHT22;5313;48.834;9.228;2024-02-14T13:22:54;14.60;99.90
10530;DHT22;5313;48.834;9.228;2024-02-14T13:25:19;14.60;99.90
10530;DHT22;5313;48.834;9.228;2024-02-14T13:27:45;14.60;99.90
10530;DHT22;5313;48.834;9.228;2024-02-14T13:30:11;14.40;99.90
10530;DHT22;5313;48.834;9.228;2024-02-14T13:32:36;14.50;99.90
10530;DHT22;5313;48.834;9.228;2024-02-14T13:35:02;14.50;99.90
10530;DHT22;5313;48.834;9.228;2024-02-14T13:37:28;14.50;99.90
10530;DHT22;5313;48.834;9.228;2024-02-14T13:39:54;14.60;99.90
10530;DHT22;5313;48.834;9.228;2024-02-14T13:42:20;14.70;99.90
10530;DHT22;5313;48.834;9.228;2024-02-14T13:44:45;14.60;99.90
10530;DHT22;5313;48.834;9.228;2024-02-14T13:47:11;14.60;99.90
10530;DHT22;5313;48.834;9.228;2024-02-14T13:49:37;14.70;99.90
10530;DHT22;5313;48.834;9.228;2024-02-14T13:52:02;14.60;99.90
10530;DHT22;5313;48.834;9.228;2024-02-14T13:54:28;14.60;99.90
10530;DHT22;5313;48.834;9.228;2024-02-14T13:56:53;14.60;99.90
10530;DHT22;5313;48.834;9.228;2024-02-14T13:59:20;14.60;99.90
10530;DHT22;5313;48.834;9.228;2024-02-14T14:01:46;14.70;99.90
10530;DHT22;5313;48.834;9.228;2024-02-14T14:04:12;14.70;99.90
10530;DHT22;5313;48.834;9.228;2024-02-14T14:06:38;14.60;99.90
10530;DHT22;5313;48.834;9.228;2024-02-14T14:09:04;14.80;99.90
10530;DHT22;5313;48.834;9.228;2024-02-14T14:11:33;14.80;99.90
10530;DHT22;5313;48.834;9.228;2024-02-14T14:13:58;14.80;99.90
10530;DHT22;5313;48.834;9.228;2024-02-14T14:16:25;14.80;99.90
10530;DHT22;5313;48.834;9.228;2024-02-14T14:18:51;14.80;99.90
10530;DHT22;5313;48.834;9.228;2024-02-14T14:21:16;14.70;99.90
10530;DHT22;5313;48.834;9.228;2024-02-14T14:23:42;14.70;99.90
10530;DHT22;5313;48.834;9.228;2024-02-14T14:26:09;14.70;99.90
10530;DHT22;5313;48.834;9.228;2024-02-14T14:28:35;14.70;99.90
10530;DHT22;5313;48.834;9.228;2024-02-14T14:31:00;14.60;99.90
10530;DHT22;5313;48.834;9.228;2024-02-14T14:33:27;14.70;99.90
10530;DHT22;5313;48.834;9.228;2024-02-14T14:35:53;14.50;99.90
10530;DHT22;5313;48.834;9.228;2024-02-14T14:38:20;14.30;99.90
10530;DHT22;5313;48.834;9.228;2024-02-14T14:40:47;14.30;99.90
10530;DHT22;5313;48.834;9.228;2024-02-14T14:43:13;14.20;99.90
10530;DHT22;5313;48.834;9.228;2024-02-14T14:45:38;14.10;99.90
10530;DHT22;5313;48.834;9.228;2024-02-14T14:48:05;14.10;99.90
10530;DHT22;5313;48.834;9.228;2024-02-14T14:50:31;14.20;99.90
10530;DHT22;5313;48.834;9.228;2024-02-14T14:52:57;14.20;99.90
10530;DHT22;5313;48.834;9.228;2024-02-14T14:55:24;14.20;99.90
10530;DHT22;5313;48.834;9.228;2024-02-14T14:57:49;14.10;99.90
10530;DHT22;5313;48.834;9.228;2024-02-14T15:00:15;14.20;99.90
10530;DHT22;5313;48.834;9.228;2024-02-14T15:02:42;14.20;99.90
10530;DHT22;5313;48.834;9.228;2024-02-14T15:05:13;14.30;99.90
10530;DHT22;5313;48.834;9.228;2024-02-14T15:07:40;14.20;99.90
10530;DHT22;5313;48.834;9.228;2024-02-14T15:10:06;14.20;99.90
10530;DHT22;5313;48.834;9.228;2024-02-14T15:12:33;14.20;99.90
10530;DHT22;5313;48.834;9.228;2024-02-14T15:15:02;14.20;99.90
10530;DHT22;5313;48.834;9.228;2024-02-14T15:17:27;14.20;99.90
10530;DHT22;5313;48.834;9.228;2024-02-14T15:19:55;14.20;99.90
10530;DHT22;5313;48.834;9.228;2024-02-14T15:22:20;14.30;99.90
10530;DHT22;5313;48.834;9.228;2024-02-14T15:24:46;14.30;99.90
10530;DHT22;5313;48.834;9.228;2024-02-14T15:27:12;14.20;99.90
10530;DHT22;5313;48.834;9.228;2024-02-14T15:29:47;14.20;99.90
10530;DHT22;5313;48.834;9.228;2024-02-14T15:32:31;14.30;99.90
10530;DHT22;5313;48.834;9.228;2024-02-14T15:35:15;14.30;99.90
10530;DHT22;5313;48.834;9.228;2024-02-14T15:37:41;14.30;99.90
10530;DHT22;5313;48.834;9.228;2024-02-14T15:40:08;14.40;99.90
10530;DHT22;5313;48.834;9.228;2024-02-14T15:42:34;14.40;99.90
10530;DHT22;5313;48.834;9.228;2024-02-14T15:44:59;14.40;99.90
10530;DHT22;5313;48.834;9.228;2024-02-14T15:47:25;14.30;99.90
10530;DHT22;5313;48.834;9.228;2024-02-14T15:49:50;14.30;99.90